Time;durP1;ratioP1;P1;durP2;ratioP2;P2;SDS_P1;SDS_P2;PMS_P1;PMS_P2;Temp;Humidity;BMP_temperature;BMP_pressure;BME280_temperature;BME280_humidity;BME280_pressure;Samples;Min_cycle;Max_cycle;Signal;HPM_P1;HPM_P2
2024/02/04 00:00:05;;;;;;;;;;;;;;;;;;5015243;28;19986;-62
2024/02/04 00:02:31;;;;;;;;;;;;;;;;;;5030607;28;19952;-62
2024/02/04 00:04:57;;;;;;;;;;;;;;;;;;5028221;28;20262;-62
2024/02/04 00:07:23;;;;;;;;;;;;;;;;;;5027772;28;20374;-62
2024/02/04 00:09:49;;;;;;;;;;;;;;;;;;5016629;28;19925;-62
2024/02/04 00:12:15;;;;;;;;;;;;;;;;;;5047233;28;19936;-62
2024/02/04 00:14:41;;;;;;;;;;;;;;;;;;5032818;28;19921;-63
2024/02/04 00:17:07;;;;;;;;;;;;;;;;;;5050366;28;19925;-63
2024/02/04 00:19:33;;;;;;;;;;;;;;;;;;5030782;28;19929;-62
2024/02/04 00:21:59;;;;;;;;;;;;;;;;;;5044331;28;19921;-62
2024/02/04 00:24:25;;;;;;;;;;;;;;;;;;5050193;28;19952;-62
2024/02/04 00:26:51;;;;;;;;;;;;;;;;;;5030222;28;19994;-62
2024/02/04 00:29:16;;;;;;;;;;;;;;;;;;5032038;28;20321;-62
2024/02/04 00:31:42;;;;;;;;;;;;;;;;;;5050559;28;20369;-62
2024/02/04 00:34:08;;;;;;;;;;;;;;;;;;5050723;28;19920;-62
2024/02/04 00:36:34;;;;;;;;;;;;;;;;;;5050692;28;20496;-62
2024/02/04 00:39:00;;;;;;;;;;;;;;;;;;5048008;28;19925;-62
2024/02/04 00:41:26;;;;;;;;;;;;;;;;;;5049582;28;19927;-62
2024/02/04 00:43:52;;;;;;;;;;;;;;;;;;5050987;28;19986;-62
2024/02/04 00:46:19;;;;;;;;;;;;;;;;;;5047327;28;19929;-62
2024/02/04 00:48:44;;;;;;;;;;;;;;;;;;5032811;28;19920;-62
2024/02/04 00:51:12;;;;;;;;;;;;;;;;;;5048252;28;19927;-62
2024/02/04 00:53:38;;;;;;;;;;;;;;;;;;5029440;28;19927;-62
2024/02/04 00:56:04;;;;;;;;;;;;;;;;;;5030323;28;19921;-62
2024/02/04 00:58:30;;;;;;;;;;;;;;;;;;5048667;28;20397;-62
2024/02/04 01:00:56;;;;;;;;;;;;;;;;;;5049480;28;20390;-62
2024/02/04 01:03:22;;;;;;;;;;;;;;;;;;5051354;28;20011;-62
2024/02/04 01:05:48;;;;;;;;;;;;;;;;;;5049691;28;19921;-62
2024/02/04 01:08:14;;;;;;;;;;;;;;;;;;5045828;28;19928;-62
2024/02/04 01:10:40;;;;;;;;;;;;;;;;;;5050121;28;19928;-62
2024/02/04 01:13:06;;;;;;;;;;;;;;;;;;5050665;28;20280;-62
2024/02/04 01:15:32;;;;;;;;;;;;;;;;;;5049563;28;19921;-62
2024/02/04 01:17:57;;;;;;;;;;;;;;;;;;5044572;28;19928;-62
2024/02/04 01:20:23;;;;;;;;;;;;;;;;;;5050082;28;19928;-62
2024/02/04 01:22:49;;;;;;;;;;;;;;;;;;5030695;28;19927;-62
2024/02/04 01:25:15;;;;;;;;;;;;;;;;;;5046394;28;19928;-62
2024/02/04 01:27:42;;;;;;;;;;;;;;;;;;5048634;28;19932;-62
2024/02/04 01:30:08;;;;;;;;;;;;;;;;;;5047569;28;20015;-62
2024/02/04 01:32:34;;;;;;;;;;;;;;;;;;5050705;28;19933;-62
2024/02/04 01:34:59;;;;;;;;;;;;;;;;;;5051571;28;20007;-62
2024/02/04 01:37:25;;;;;;;;;;;;;;;;;;5050310;28;19925;-62
2024/02/04 01:39:51;;;;;;;;;;;;;;;;;;5052551;28;19921;-62
2024/02/04 01:42:17;;;;;;;;;;;;;;;;;;5035463;28;20058;-62
2024/02/04 01:44:43;;;;;;;;;;;;;;;;;;5052166;28;19958;-62
2024/02/04 01:47:09;;;;;;;;;;;;;;;;;;5034322;28;20358;-62
2024/02/04 01:49:35;;;;;;;;;;;;;;;;;;5049514;28;19927;-62
2024/02/04 01:52:01;;;;;;;;;;;;;;;;;;5052079;28;19983;-62
2024/02/04 01:54:27;;;;;;;;;;;;;;;;;;5052021;28;20378;-62
2024/02/04 01:56:53;;;;;;;;;;;;;;;;;;5050868;28;19932;-62
2024/02/04 01:59:19;;;;;;;;;;;;;;;;;;5030566;28;20293;-62
2024/02/04 02:01:45;;;;;;;;;;;;;;;;;;5050101;28;19929;-61
2024/02/04 02:04:11;;;;;;;;;;;;;;;;;;5052162;28;19925;-61
2024/02/04 02:06:41;;;;;;;;;;;;;;;;;;5052128;28;20425;-61
2024/02/04 02:09:10;;;;;;;;;;;;;;;;;;5050237;28;19925;-63
2024/02/04 02:11:37;;;;;;;;;;;;;;;;;;5048871;28;19921;-62
2024/02/04 02:14:03;;;;;;;;;;;;;;;;;;5016938;28;20420;-63
2024/02/04 02:16:29;;;;;;;;;;;;;;;;;;5016662;28;19921;-63
2024/02/04 02:18:55;;;;;;;;;;;;;;;;;;5052828;28;19936;-63
2024/02/04 02:21:21;;;;;;;;;;;;;;;;;;5051935;28;19974;-63
2024/02/04 02:23:47;;;;;;;;;;;;;;;;;;5047770;28;20460;-63
2024/02/04 02:26:13;;;;;;;;;;;;;;;;;;5049734;28;19977;-63
2024/02/04 02:28:39;;;;;;;;;;;;;;;;;;5053282;28;19966;-63
2024/02/04 02:31:05;;;;;;;;;;;;;;;;;;5051076;28;20396;-63
2024/02/04 02:33:31;;;;;;;;;;;;;;;;;;5049973;28;19932;-63
2024/02/04 02:35:56;;;;;;;;;;;;;;;;;;5051845;28;19928;-63
2024/02/04 02:38:22;;;;;;;;;;;;;;;;;;5049917;28;20321;-63
2024/02/04 02:40:48;;;;;;;;;;;;;;;;;;5051625;28;19921;-63
2024/02/04 02:43:14;;;;;;;;;;;;;;;;;;5050006;28;20032;-63
2024/02/04 02:45:40;;;;;;;;;;;;;;;;;;5050195;28;20310;-63
2024/02/04 02:48:08;;;;;;;;;;;;;;;;;;5052440;28;19929;-63
2024/02/04 02:50:34;;;;;;;;;;;;;;;;;;5053538;28;19920;-63
2024/02/04 02:53:00;;;;;;;;;;;;;;;;;;5048131;28;19921;-63
2024/02/04 02:55:26;;;;;;;;;;;;;;;;;;5047665;28;19931;-63
2024/02/04 02:57:52;;;;;;;;;;;;;;;;;;5050633;28;20306;-63
2024/02/04 03:00:18;;;;;;;;;;;;;;;;;;5030215;28;19925;-61
2024/02/04 03:02:44;;;;;;;;;;;;;;;;;;5032432;28;19928;-61
2024/02/04 03:05:10;;;;;;;;;;;;;;;;;;5032656;28;20358;-61
2024/02/04 03:07:35;;;;;;;;;;;;;;;;;;5046892;28;19963;-62
2024/02/04 03:10:02;;;;;;;;;;;;;;;;;;5052876;28;19966;-61
2024/02/04 03:12:28;;;;;;;;;;;;;;;;;;5032544;28;20039;-62
2024/02/04 03:14:54;;;;;;;;;;;;;;;;;;5051659;28;20362;-63
2024/02/04 03:17:21;;;;;;;;;;;;;;;;;;5051671;28;19925;-63
2024/02/04 03:19:47;;;;;;;;;;;;;;;;;;5051041;28;19925;-62
2024/02/04 03:22:13;;;;;;;;;;;;;;;;;;5050030;28;20578;-62
2024/02/04 03:24:39;;;;;;;;;;;;;;;;;;5050663;28;19921;-62
2024/02/04 03:27:05;;;;;;;;;;;;;;;;;;5034799;28;19931;-62
2024/02/04 03:29:31;;;;;;;;;;;;;;;;;;5051759;28;19920;-62
2024/02/04 03:31:57;;;;;;;;;;;;;;;;;;5015264;28;20378;-62
2024/02/04 03:34:23;;;;;;;;;;;;;;;;;;5049332;28;19982;-62
2024/02/04 03:36:49;;;;;;;;;;;;;;;;;;5047534;28;19925;-62
2024/02/04 03:39:15;;;;;;;;;;;;;;;;;;5050074;28;19927;-62
2024/02/04 03:41:41;;;;;;;;;;;;;;;;;;5050635;28;19921;-62
2024/02/04 03:44:06;;;;;;;;;;;;;;;;;;5049577;28;19928;-63
2024/02/04 03:46:33;;;;;;;;;;;;;;;;;;5047826;28;19924;-63
2024/02/04 03:48:59;;;;;;;;;;;;;;;;;;5033535;28;19967;-62
2024/02/04 03:51:24;;;;;;;;;;;;;;;;;;5046872;28;20329;-62
2024/02/04 03:53:51;;;;;;;;;;;;;;;;;;5049479;28;19925;-63
2024/02/04 03:56:17;;;;;;;;;;;;;;;;;;5049191;28;20297;-63
2024/02/04 03:58:43;;;;;;;;;;;;;;;;;;5049194;28;20401;-62
2024/02/04 04:01:09;;;;;;;;;;;;;;;;;;5029906;28;19921;-62
2024/02/04 04:03:35;;;;;;;;;;;;;;;;;;5049252;28;20329;-62
2024/02/04 04:06:01;;;;;;;;;;;;;;;;;;5045600;28;19925;-62
2024/02/04 04:08:27;;;;;;;;;;;;;;;;;;5029840;28;19921;-63
2024/02/04 04:10:53;;;;;;;;;;;;;;;;;;5032686;28;19931;-63
2024/02/04 04:13:19;;;;;;;;;;;;;;;;;;5049282;28;20274;-63
2024/02/04 04:15:45;;;;;;;;;;;;;;;;;;5029584;28;20271;-63
2024/02/04 04:18:12;;;;;;;;;;;;;;;;;;5045851;28;19932;-63
2024/02/04 04:20:38;;;;;;;;;;;;;;;;;;5050449;28;20007;-63
2024/02/04 04:23:04;;;;;;;;;;;;;;;;;;5045823;28;20019;-63
2024/02/04 04:25:30;;;;;;;;;;;;;;;;;;5049517;28;20007;-63
2024/02/04 04:27:58;;;;;;;;;;;;;;;;;;5049958;28;19974;-63
2024/02/04 04:30:24;;;;;;;;;;;;;;;;;;5031441;28;19928;-63
2024/02/04 04:32:50;;;;;;;;;;;;;;;;;;5048424;28;20284;-63
2024/02/04 04:35:15;;;;;;;;;;;;;;;;;;5049716;28;19944;-63
2024/02/04 04:37:41;;;;;;;;;;;;;;;;;;5046073;28;19940;-63
2024/02/04 04:40:07;;;;;;;;;;;;;;;;;;5049713;28;19987;-63
2024/02/04 04:42:33;;;;;;;;;;;;;;;;;;5049278;28;19948;-63
2024/02/04 04:44:59;;;;;;;;;;;;;;;;;;5048706;28;20004;-63
2024/02/04 04:47:25;;;;;;;;;;;;;;;;;;5031588;28;20027;-62
2024/02/04 04:49:51;;;;;;;;;;;;;;;;;;5050587;28;19924;-62
2024/02/04 04:52:17;;;;;;;;;;;;;;;;;;5029394;28;20007;-62
2024/02/04 04:54:43;;;;;;;;;;;;;;;;;;5029321;28;19982;-62
2024/02/04 04:57:09;;;;;;;;;;;;;;;;;;5050074;28;19929;-62
2024/02/04 04:59:36;;;;;;;;;;;;;;;;;;5049263;28;19928;-62
2024/02/04 05:02:02;;;;;;;;;;;;;;;;;;5028776;28;19921;-62
2024/02/04 05:04:27;;;;;;;;;;;;;;;;;;5054533;28;20340;-62
2024/02/04 05:06:53;;;;;;;;;;;;;;;;;;5052851;28;19931;-62
2024/02/04 05:09:20;;;;;;;;;;;;;;;;;;5050050;28;19943;-62
2024/02/04 05:11:45;;;;;;;;;;;;;;;;;;5035484;28;19925;-63
2024/02/04 05:14:11;;;;;;;;;;;;;;;;;;5052488;28;20058;-63
2024/02/04 05:16:37;;;;;;;;;;;;;;;;;;5052747;28;19960;-63
2024/02/04 05:19:03;;;;;;;;;;;;;;;;;;5051614;28;20425;-63
2024/02/04 05:21:29;;;;;;;;;;;;;;;;;;5034642;28;19925;-63
2024/02/04 05:23:55;;;;;;;;;;;;;;;;;;5032265;28;19925;-63
2024/02/04 05:26:21;;;;;;;;;;;;;;;;;;5052314;28;19921;-63
2024/02/04 05:28:47;;;;;;;;;;;;;;;;;;5054085;28;19928;-63
2024/02/04 05:31:13;;;;;;;;;;;;;;;;;;5032547;28;19925;-62
2024/02/04 05:33:39;;;;;;;;;;;;;;;;;;5054393;28;19924;-62
2024/02/04 05:36:04;;;;;;;;;;;;;;;;;;5053997;28;19920;-62
2024/02/04 05:38:30;;;;;;;;;;;;;;;;;;5034337;28;19925;-62
2024/02/04 05:40:56;;;;;;;;;;;;;;;;;;5050158;28;19954;-62
2024/02/04 05:43:22;;;;;;;;;;;;;;;;;;5051441;28;19978;-62
2024/02/04 05:45:48;;;;;;;;;;;;;;;;;;5033764;28;19921;-62
2024/02/04 05:48:14;;;;;;;;;;;;;;;;;;5052450;28;20062;-62
2024/02/04 05:50:40;;;;;;;;;;;;;;;;;;5051749;28;19966;-62
2024/02/04 05:53:06;;;;;;;;;;;;;;;;;;5034924;28;19950;-62
2024/02/04 05:55:32;;;;;;;;;;;;;;;;;;5050127;28;19921;-62
2024/02/04 05:57:58;;;;;;;;;;;;;;;;;;5051049;28;20436;-62
2024/02/04 06:00:24;;;;;;;;;;;;;;;;;;5031465;28;20536;-62
2024/02/04 06:02:49;;;;;;;;;;;;;;;;;;5046709;28;20005;-62
2024/02/04 06:05:15;;;;;;;;;;;;;;;;;;5033102;28;19966;-62
2024/02/04 06:07:41;;;;;;;;;;;;;;;;;;5052590;28;20003;-62
2024/02/04 06:10:07;;;;;;;;;;;;;;;;;;5052112;28;19928;-62
2024/02/04 06:12:33;;;;;;;;;;;;;;;;;;5035512;28;19936;-62
2024/02/04 06:14:59;;;;;;;;;;;;;;;;;;5033908;28;20382;-62
2024/02/04 06:17:25;;;;;;;;;;;;;;;;;;5048091;28;19925;-62
2024/02/04 06:19:51;;;;;;;;;;;;;;;;;;5051171;28;19928;-62
2024/02/04 06:22:17;;;;;;;;;;;;;;;;;;5051979;28;20469;-63
2024/02/04 06:24:43;;;;;;;;;;;;;;;;;;5053201;28;20011;-62
2024/02/04 06:27:09;;;;;;;;;;;;;;;;;;5059070;28;20053;-62
2024/02/04 06:29:35;;;;;;;;;;;;;;;;;;5034829;28;19921;-63
2024/02/04 06:32:00;;;;;;;;;;;;;;;;;;5046059;28;19925;-62
2024/02/04 06:34:26;;;;;;;;;;;;;;;;;;5034024;28;20004;-62
2024/02/04 06:36:52;;;;;;;;;;;;;;;;;;5050224;28;19971;-62
2024/02/04 06:39:18;;;;;;;;;;;;;;;;;;5034024;28;19925;-62
2024/02/04 06:41:44;;;;;;;;;;;;;;;;;;5033817;28;20013;-62
2024/02/04 06:44:10;;;;;;;;;;;;;;;;;;5046838;28;20248;-62
2024/02/04 06:46:36;;;;;;;;;;;;;;;;;;5032511;28;19971;-63
2024/02/04 06:49:02;;;;;;;;;;;;;;;;;;5031485;28;19925;-62
2024/02/04 06:51:28;;;;;;;;;;;;;;;;;;5050421;28;19929;-62
2024/02/04 06:53:54;;;;;;;;;;;;;;;;;;5050923;28;19924;-63
2024/02/04 06:56:20;;;;;;;;;;;;;;;;;;5051996;28;20539;-63
2024/02/04 06:58:46;;;;;;;;;;;;;;;;;;5052473;28;19932;-63
2024/02/04 07:01:13;;;;;;;;;;;;;;;;;;5030235;28;20197;-62
2024/02/04 07:03:39;;;;;;;;;;;;;;;;;;5046901;28;19960;-62
2024/02/04 07:06:05;;;;;;;;;;;;;;;;;;5047898;28;20067;-63
2024/02/04 07:08:31;;;;;;;;;;;;;;;;;;5030731;28;19928;-63
2024/02/04 07:10:57;;;;;;;;;;;;;;;;;;5032416;28;19921;-63
2024/02/04 07:13:23;;;;;;;;;;;;;;;;;;5043291;28;19928;-63
2024/02/04 07:15:49;;;;;;;;;;;;;;;;;;5050121;28;19928;-63
2024/02/04 07:18:17;;;;;;;;;;;;;;;;;;5049069;28;19925;-63
2024/02/04 07:20:43;;;;;;;;;;;;;;;;;;5046512;28;19929;-63
2024/02/04 07:23:09;;;;;;;;;;;;;;;;;;5036549;28;19936;-63
2024/02/04 07:25:35;;;;;;;;;;;;;;;;;;5047851;28;19948;-63
2024/02/04 07:28:01;;;;;;;;;;;;;;;;;;5032663;28;19925;-63
2024/02/04 07:30:27;;;;;;;;;;;;;;;;;;5044305;28;20046;-63
2024/02/04 07:32:53;;;;;;;;;;;;;;;;;;5051739;28;20679;-63
2024/02/04 07:35:19;;;;;;;;;;;;;;;;;;5052618;28;20378;-63
2024/02/04 07:37:44;;;;;;;;;;;;;;;;;;5044378;28;19924;-63
2024/02/04 07:40:10;;;;;;;;;;;;;;;;;;5051584;28;19921;-63
2024/02/04 07:42:36;;;;;;;;;;;;;;;;;;5050395;28;19972;-63
2024/02/04 07:45:08;;;;;;;;;;;;;;;;;;5048781;28;20362;-63
2024/02/04 07:47:34;;;;;;;;;;;;;;;;;;5043872;28;19936;-63
2024/02/04 07:50:00;;;;;;;;;;;;;;;;;;5042973;28;19970;-63
2024/02/04 07:52:26;;;;;;;;;;;;;;;;;;5047426;28;19928;-64
2024/02/04 07:54:52;;;;;;;;;;;;;;;;;;5046545;28;19924;-63
2024/02/04 07:57:17;;;;;;;;;;;;;;;;;;5051757;28;19928;-63
2024/02/04 07:59:43;;;;;;;;;;;;;;;;;;5033181;28;20290;-63
2024/02/04 08:02:09;;;;;;;;;;;;;;;;;;5051628;28;19962;-63
2024/02/04 08:04:35;;;;;;;;;;;;;;;;;;5031145;28;19932;-64
2024/02/04 08:07:01;;;;;;;;;;;;;;;;;;5033765;28;19921;-63
2024/02/04 08:09:27;;;;;;;;;;;;;;;;;;5030817;28;19921;-63
2024/02/04 08:11:53;;;;;;;;;;;;;;;;;;5035065;22;19932;-64
2024/02/04 08:14:19;;;;;;;;;;;;;;;;;;5036863;28;19940;-64
2024/02/04 08:16:47;;;;;;;;;;;;;;;;;;5030753;28;19932;-64
2024/02/04 08:19:13;;;;;;;;;;;;;;;;;;5038470;28;20422;-64
2024/02/04 08:21:39;;;;;;;;;;;;;;;;;;5035653;28;19925;-64
2024/02/04 08:24:05;;;;;;;;;;;;;;;;;;5041681;28;19925;-64
2024/02/04 08:26:31;;;;;;;;;;;;;;;;;;4987994;28;20387;-64
2024/02/04 08:28:57;;;;;;;;;;;;;;;;;;5014219;28;19921;-64
2024/02/04 08:31:23;;;;;;;;;;;;;;;;;;5026324;28;19928;-64
2024/02/04 08:33:49;;;;;;;;;;;;;;;;;;5013302;28;20021;-64
2024/02/04 08:36:15;;;;;;;;;;;;;;;;;;5030965;28;20341;-64
2024/02/04 08:38:41;;;;;;;;;;;;;;;;;;5031766;28;19929;-64
2024/02/04 08:41:07;;;;;;;;;;;;;;;;;;5032246;28;20422;-64
2024/02/04 08:43:33;;;;;;;;;;;;;;;;;;5031742;28;19972;-64
2024/02/04 08:45:59;;;;;;;;;;;;;;;;;;5026098;28;19921;-64
2024/02/04 08:48:25;;;;;;;;;;;;;;;;;;5024634;28;20008;-61
2024/02/04 08:50:51;;;;;;;;;;;;;;;;;;5030460;28;20016;-62
2024/02/04 08:53:17;;;;;;;;;;;;;;;;;;5028097;28;20012;-63
2024/02/04 08:55:43;;;;;;;;;;;;;;;;;;5027428;28;19921;-62
2024/02/04 08:58:09;;;;;;;;;;;;;;;;;;5026465;28;19925;-62
2024/02/04 09:00:34;;;;;;;;;;;;;;;;;;5027690;28;19929;-61
2024/02/04 09:03:00;;;;;;;;;;;;;;;;;;5027638;28;19925;-62
2024/02/04 09:05:26;;;;;;;;;;;;;;;;;;5005979;28;20407;-63
2024/02/04 09:07:55;;;;;;;;;;;;;;;;;;5037551;28;19921;-63
2024/02/04 09:10:21;;;;;;;;;;;;;;;;;;5032841;28;19968;-63
2024/02/04 09:12:47;;;;;;;;;;;;;;;;;;5025892;28;20015;-63
2024/02/04 09:15:12;;;;;;;;;;;;;;;;;;5013071;28;19925;-63
2024/02/04 09:17:38;;;;;;;;;;;;;;;;;;5028742;28;20432;-63
2024/02/04 09:20:04;;;;;;;;;;;;;;;;;;5028658;28;20390;-63
2024/02/04 09:22:30;;;;;;;;;;;;;;;;;;5028109;28;20370;-63
2024/02/04 09:24:56;;;;;;;;;;;;;;;;;;5029866;28;19942;-63
2024/02/04 09:27:22;;;;;;;;;;;;;;;;;;5021166;28;19921;-62
2024/02/04 09:29:48;;;;;;;;;;;;;;;;;;5031119;28;19921;-63
2024/02/04 09:32:14;;;;;;;;;;;;;;;;;;5027368;28;20629;-63
2024/02/04 09:34:40;;;;;;;;;;;;;;;;;;5022870;28;19967;-63
2024/02/04 09:37:06;;;;;;;;;;;;;;;;;;5030713;28;20014;-63
2024/02/04 09:39:32;;;;;;;;;;;;;;;;;;5030664;28;20588;-63
2024/02/04 09:41:59;;;;;;;;;;;;;;;;;;5036060;28;19925;-63
2024/02/04 09:44:25;;;;;;;;;;;;;;;;;;5013653;28;19932;-62
2024/02/04 09:46:52;;;;;;;;;;;;;;;;;;5025060;28;19925;-62
2024/02/04 09:49:17;;;;;;;;;;;;;;;;;;5022912;28;19928;-62
2024/02/04 09:51:43;;;;;;;;;;;;;;;;;;5045760;28;19928;-62
2024/02/04 09:54:09;;;;;;;;;;;;;;;;;;5024733;28;19947;-62
2024/02/04 09:56:36;;;;;;;;;;;;;;;;;;5031884;28;19925;-62
2024/02/04 09:59:02;;;;;;;;;;;;;;;;;;5022673;28;19936;-62
2024/02/04 10:01:28;;;;;;;;;;;;;;;;;;5028994;28;19921;-63
2024/02/04 10:03:54;;;;;;;;;;;;;;;;;;5048615;28;19925;-63
2024/02/04 10:06:20;;;;;;;;;;;;;;;;;;5013030;28;21004;-63
2024/02/04 10:08:46;;;;;;;;;;;;;;;;;;5032897;28;20000;-63
2024/02/04 10:11:12;;;;;;;;;;;;;;;;;;5034050;28;19921;-63
2024/02/04 10:13:37;;;;;;;;;;;;;;;;;;5027811;28;19932;-62
2024/02/04 10:16:05;;;;;;;;;;;;;;;;;;5029290;28;19921;-62
2024/02/04 10:18:31;;;;;;;;;;;;;;;;;;5030558;28;19929;-62
2024/02/04 10:20:57;;;;;;;;;;;;;;;;;;5008459;28;19933;-63
2024/02/04 10:23:23;;;;;;;;;;;;;;;;;;5025168;28;20008;-62
2024/02/04 10:25:49;;;;;;;;;;;;;;;;;;5018660;28;20358;-62
2024/02/04 10:28:16;;;;;;;;;;;;;;;;;;5034164;28;20329;-63
2024/02/04 10:30:42;;;;;;;;;;;;;;;;;;5032027;28;20036;-63
2024/02/04 10:33:07;;;;;;;;;;;;;;;;;;5039853;28;20343;-63
2024/02/04 10:35:33;;;;;;;;;;;;;;;;;;5022304;28;19957;-63
2024/02/04 10:37:59;;;;;;;;;;;;;;;;;;5031958;28;19957;-63
2024/02/04 10:40:26;;;;;;;;;;;;;;;;;;5027116;28;19967;-63
2024/02/04 10:42:51;;;;;;;;;;;;;;;;;;5037999;28;20366;-63
2024/02/04 10:45:18;;;;;;;;;;;;;;;;;;5030349;28;20016;-63
2024/02/04 10:47:43;;;;;;;;;;;;;;;;;;5041443;28;19921;-63
2024/02/04 10:50:09;;;;;;;;;;;;;;;;;;5017266;28;20012;-66
2024/02/04 10:52:35;;;;;;;;;;;;;;;;;;5025307;28;20373;-66
2024/02/04 10:55:01;;;;;;;;;;;;;;;;;;5032813;28;19922;-65
2024/02/04 10:57:30;;;;;;;;;;;;;;;;;;5033743;28;19929;-63
2024/02/04 10:59:56;;;;;;;;;;;;;;;;;;5045543;28;20621;-63
2024/02/04 11:02:22;;;;;;;;;;;;;;;;;;5010512;28;19932;-63
2024/02/04 11:04:48;;;;;;;;;;;;;;;;;;5042527;28;19971;-63
2024/02/04 11:07:14;;;;;;;;;;;;;;;;;;5036135;28;19921;-63
2024/02/04 11:09:40;;;;;;;;;;;;;;;;;;5027949;28;20527;-63
2024/02/04 11:12:05;;;;;;;;;;;;;;;;;;5026440;28;19932;-63
2024/02/04 11:14:32;;;;;;;;;;;;;;;;;;4993015;28;19928;-63
2024/02/04 11:16:58;;;;;;;;;;;;;;;;;;5024276;28;19926;-63
2024/02/04 11:19:23;;;;;;;;;;;;;;;;;;5037802;28;19926;-63
2024/02/04 11:21:49;;;;;;;;;;;;;;;;;;5025895;28;19921;-63
2024/02/04 11:24:15;;;;;;;;;;;;;;;;;;5033687;28;19921;-63
2024/02/04 11:26:42;;;;;;;;;;;;;;;;;;5015500;28;20594;-63
2024/02/04 11:29:08;;;;;;;;;;;;;;;;;;5025642;28;20004;-63
2024/02/04 11:31:34;;;;;;;;;;;;;;;;;;5030308;28;19975;-63
2024/02/04 11:34:00;;;;;;;;;;;;;;;;;;5026952;28;19961;-63
2024/02/04 11:36:26;;;;;;;;;;;;;;;;;;5031426;28;21405;-63
2024/02/04 11:38:52;;;;;;;;;;;;;;;;;;5032737;28;19968;-63
2024/02/04 11:41:18;;;;;;;;;;;;;;;;;;5032065;28;19929;-63
2024/02/04 11:43:44;;;;;;;;;;;;;;;;;;5037102;28;20000;-63
2024/02/04 11:46:09;;;;;;;;;;;;;;;;;;5028081;28;19979;-63
2024/02/04 11:48:38;;;;;;;;;;;;;;;;;;5021140;28;20003;-63
2024/02/04 12:23:00;;;;;;;;;;;;;;;;;;5697423;23;20343;-64
2024/02/04 12:25:27;;;;;;;;;;;;;;;;;;4989721;28;19952;-64
2024/02/04 12:27:53;;;;;;;;;;;;;;;;;;5009667;28;20370;-64
2024/02/04 12:30:21;;;;;;;;;;;;;;;;;;4984231;28;19975;-63
2024/02/04 12:32:47;;;;;;;;;;;;;;;;;;4991854;28;19926;-63
2024/02/04 12:35:13;;;;;;;;;;;;;;;;;;5000181;28;19937;-64
2024/02/04 12:37:39;;;;;;;;;;;;;;;;;;5008103;28;19926;-64
2024/02/04 12:40:06;;;;;;;;;;;;;;;;;;4984464;28;19929;-63
2024/02/04 12:42:32;;;;;;;;;;;;;;;;;;5020298;28;19921;-63
2024/02/04 12:44:58;;;;;;;;;;;;;;;;;;5008562;28;20472;-63
2024/02/04 12:47:26;;;;;;;;;;;;;;;;;;5001473;28;19922;-63
2024/02/04 12:49:52;;;;;;;;;;;;;;;;;;5007956;28;19922;-63
2024/02/04 12:52:18;;;;;;;;;;;;;;;;;;4999852;28;20372;-63
2024/02/04 12:54:44;;;;;;;;;;;;;;;;;;4994716;28;19926;-63
2024/02/04 12:57:13;;;;;;;;;;;;;;;;;;5001586;28;19932;-63
2024/02/04 12:59:39;;;;;;;;;;;;;;;;;;5006807;28;19925;-63
2024/02/04 13:02:05;;;;;;;;;;;;;;;;;;4997289;28;19922;-63
2024/02/04 13:04:31;;;;;;;;;;;;;;;;;;5000151;28;19930;-63
2024/02/04 13:06:57;;;;;;;;;;;;;;;;;;4999942;28;19926;-64
2024/02/04 13:09:23;;;;;;;;;;;;;;;;;;4991039;28;19928;-63
2024/02/04 13:11:49;;;;;;;;;;;;;;;;;;5011655;28;20017;-63
2024/02/04 13:14:15;;;;;;;;;;;;;;;;;;4999728;28;20012;-66
2024/02/04 13:16:41;;;;;;;;;;;;;;;;;;5004339;28;19929;-67
2024/02/04 13:19:07;;;;;;;;;;;;;;;;;;4991728;28;20355;-66
2024/02/04 13:21:33;;;;;;;;;;;;;;;;;;5006268;28;20468;-66
2024/02/04 13:23:59;;;;;;;;;;;;;;;;;;5003619;28;19930;-67
2024/02/04 13:26:25;;;;;;;;;;;;;;;;;;5006266;28;19922;-66
2024/02/04 13:28:51;;;;;;;;;;;;;;;;;;4995761;28;19925;-67
2024/02/04 13:31:16;;;;;;;;;;;;;;;;;;5010119;28;19987;-66
2024/02/04 13:33:43;;;;;;;;;;;;;;;;;;5015595;28;19929;-66
2024/02/04 13:36:09;;;;;;;;;;;;;;;;;;5014481;28;19928;-66
2024/02/04 13:38:35;;;;;;;;;;;;;;;;;;4991837;28;19925;-67
2024/02/04 13:41:00;;;;;;;;;;;;;;;;;;5003417;28;20012;-67
2024/02/04 13:43:26;;;;;;;;;;;;;;;;;;5010931;28;20016;-67
2024/02/04 13:45:52;;;;;;;;;;;;;;;;;;4989580;28;20071;-67
2024/02/04 13:48:18;;;;;;;;;;;;;;;;;;5014049;28;19921;-67
2024/02/04 13:50:45;;;;;;;;;;;;;;;;;;4998165;28;19925;-66
2024/02/04 13:53:11;;;;;;;;;;;;;;;;;;4997241;28;19925;-67
2024/02/04 13:55:38;;;;;;;;;;;;;;;;;;4991968;28;19979;-67
2024/02/04 13:58:04;;;;;;;;;;;;;;;;;;4979380;28;20397;-66
2024/02/04 14:00:30;;;;;;;;;;;;;;;;;;5013482;28;19921;-66
2024/02/04 14:02:56;;;;;;;;;;;;;;;;;;5014111;28;19926;-66
2024/02/04 14:05:25;;;;;;;;;;;;;;;;;;5011659;28;19944;-66
2024/02/04 14:07:50;;;;;;;;;;;;;;;;;;5012410;28;19932;-66
2024/02/04 14:10:16;;;;;;;;;;;;;;;;;;5033556;28;20548;-66
2024/02/04 14:12:45;;;;;;;;;;;;;;;;;;5022511;28;19947;-66
2024/02/04 14:15:11;;;;;;;;;;;;;;;;;;4998491;28;19965;-66
2024/02/04 14:17:36;;;;;;;;;;;;;;;;;;5009678;28;19956;-66
2024/02/04 14:20:04;;;;;;;;;;;;;;;;;;5011658;28;20387;-67
2024/02/04 14:22:30;;;;;;;;;;;;;;;;;;4996891;28;19948;-67
2024/02/04 14:24:56;;;;;;;;;;;;;;;;;;5001982;28;20295;-67
2024/02/04 14:27:22;;;;;;;;;;;;;;;;;;5004383;28;19929;-66
2024/02/04 14:29:48;;;;;;;;;;;;;;;;;;5010991;28;19925;-66
2024/02/04 14:32:14;;;;;;;;;;;;;;;;;;5012536;28;20298;-66
2024/02/04 14:34:40;;;;;;;;;;;;;;;;;;4996994;28;19928;-66
2024/02/04 14:37:06;;;;;;;;;;;;;;;;;;5012071;28;19925;-67
2024/02/04 14:39:32;;;;;;;;;;;;;;;;;;5011577;28;19921;-66
2024/02/04 14:41:58;;;;;;;;;;;;;;;;;;4985287;28;20578;-67
2024/02/04 14:44:24;;;;;;;;;;;;;;;;;;4990474;28;19930;-68
2024/02/04 14:46:50;;;;;;;;;;;;;;;;;;5007988;28;20679;-66
2024/02/04 14:49:16;;;;;;;;;;;;;;;;;;5014261;28;19925;-66
2024/02/04 14:51:42;;;;;;;;;;;;;;;;;;5012053;28;20008;-67
2024/02/04 14:54:11;;;;;;;;;;;;;;;;;;5013924;28;20404;-67
2024/02/04 14:56:37;;;;;;;;;;;;;;;;;;5013548;28;19980;-67
2024/02/04 14:59:03;;;;;;;;;;;;;;;;;;5011753;28;19929;-68
2024/02/04 15:01:29;;;;;;;;;;;;;;;;;;5012243;28;19925;-67
2024/02/04 15:03:54;;;;;;;;;;;;;;;;;;5000690;28;20515;-67
2024/02/04 15:06:20;;;;;;;;;;;;;;;;;;5013701;28;19986;-67
2024/02/04 15:08:46;;;;;;;;;;;;;;;;;;5013229;28;19921;-67
2024/02/04 15:11:12;;;;;;;;;;;;;;;;;;4999843;28;20039;-67
2024/02/04 15:13:38;;;;;;;;;;;;;;;;;;5002352;28;20771;-67
2024/02/04 15:16:04;;;;;;;;;;;;;;;;;;5005105;28;20012;-67
2024/02/04 15:18:31;;;;;;;;;;;;;;;;;;4989868;28;20068;-67
2024/02/04 15:20:57;;;;;;;;;;;;;;;;;;4973760;28;20044;-67
2024/02/04 15:23:23;;;;;;;;;;;;;;;;;;5003357;28;20012;-67
2024/02/04 15:25:49;;;;;;;;;;;;;;;;;;5005188;28;20344;-68
2024/02/04 15:28:15;;;;;;;;;;;;;;;;;;4986987;28;20012;-67
2024/02/04 15:30:40;;;;;;;;;;;;;;;;;;5006981;28;19929;-67
2024/02/04 15:33:06;;;;;;;;;;;;;;;;;;5002520;28;20315;-67
2024/02/04 15:35:33;;;;;;;;;;;;;;;;;;4997614;28;19926;-67
2024/02/04 15:37:59;;;;;;;;;;;;;;;;;;5000104;28;20334;-67
2024/02/04 15:40:25;;;;;;;;;;;;;;;;;;4995224;28;19932;-67
2024/02/04 15:42:51;;;;;;;;;;;;;;;;;;4967301;28;19929;-67
2024/02/04 15:45:17;;;;;;;;;;;;;;;;;;5001312;28;19933;-67
2024/02/04 15:47:43;;;;;;;;;;;;;;;;;;4984191;28;19925;-67
2024/02/04 15:50:09;;;;;;;;;;;;;;;;;;4992433;28;20391;-68
2024/02/04 15:52:35;;;;;;;;;;;;;;;;;;4992306;28;19929;-68
2024/02/04 15:55:01;;;;;;;;;;;;;;;;;;4998194;28;19968;-67
2024/02/04 15:57:27;;;;;;;;;;;;;;;;;;5007117;28;19929;-67
2024/02/04 15:59:53;;;;;;;;;;;;;;;;;;4995126;28;19932;-67
2024/02/04 16:02:19;;;;;;;;;;;;;;;;;;5007343;28;20318;-67
2024/02/04 16:04:45;;;;;;;;;;;;;;;;;;5002059;28;19929;-66
2024/02/04 16:07:11;;;;;;;;;;;;;;;;;;5006618;28;19933;-67
2024/02/04 16:09:40;;;;;;;;;;;;;;;;;;5005143;28;20390;-67
2024/02/04 16:12:06;;;;;;;;;;;;;;;;;;4977160;28;19932;-67
2024/02/04 16:14:32;;;;;;;;;;;;;;;;;;4976260;28;19925;-67
2024/02/04 16:16:58;;;;;;;;;;;;;;;;;;5006478;28;19932;-67
2024/02/04 16:19:25;;;;;;;;;;;;;;;;;;5008146;28;19930;-67
2024/02/04 16:21:51;;;;;;;;;;;;;;;;;;4990546;28;19929;-67
2024/02/04 16:24:17;;;;;;;;;;;;;;;;;;5012961;28;20444;-67
2024/02/04 16:26:42;;;;;;;;;;;;;;;;;;5001013;28;19925;-66
2024/02/04 16:29:08;;;;;;;;;;;;;;;;;;5003370;28;19925;-67
2024/02/04 16:31:34;;;;;;;;;;;;;;;;;;4989526;28;19926;-67
2024/02/04 16:34:00;;;;;;;;;;;;;;;;;;5002623;28;19921;-66
2024/02/04 16:36:28;;;;;;;;;;;;;;;;;;5007134;28;19922;-66
2024/02/04 16:38:54;;;;;;;;;;;;;;;;;;4995478;28;19976;-67
2024/02/04 16:41:20;;;;;;;;;;;;;;;;;;4971217;28;20364;-67
2024/02/04 16:43:46;;;;;;;;;;;;;;;;;;4982512;28;20007;-67
2024/02/04 16:46:12;;;;;;;;;;;;;;;;;;5006535;28;19941;-67
2024/02/04 16:48:38;;;;;;;;;;;;;;;;;;4998827;28;20347;-66
2024/02/04 16:51:04;;;;;;;;;;;;;;;;;;5013923;28;19929;-67
2024/02/04 16:53:30;;;;;;;;;;;;;;;;;;4990991;28;19925;-67
2024/02/04 16:55:55;;;;;;;;;;;;;;;;;;4973357;28;19922;-67
2024/02/04 16:58:21;;;;;;;;;;;;;;;;;;4994772;28;19933;-67
2024/02/04 17:00:47;;;;;;;;;;;;;;;;;;5016717;28;19979;-67
2024/02/04 17:03:14;;;;;;;;;;;;;;;;;;5015703;28;19945;-66
2024/02/04 17:05:40;;;;;;;;;;;;;;;;;;5016199;28;19925;-66
2024/02/04 17:08:06;;;;;;;;;;;;;;;;;;4989896;28;20053;-65